createdAt,value
2017-07-29T00:00:11.373Z,5.07
2017-07-29T00:02:38.075Z,4.95
2017-07-29T00:05:04.735Z,6.25
2017-07-29T00:07:31.387Z,5.00
2017-07-29T00:09:58.052Z,4.93
2017-07-29T00:12:24.708Z,5.05
2017-07-29T00:14:51.368Z,4.60
2017-07-29T00:17:18.035Z,5.60
2017-07-29T00:19:44.716Z,5.07
2017-07-29T00:22:11.367Z,5.20
2017-07-29T00:24:38.050Z,4.78
2017-07-29T00:27:04.738Z,4.85
2017-07-29T00:29:31.431Z,4.57
2017-07-29T00:31:58.094Z,4.90
2017-07-29T00:34:24.787Z,5.40
2017-07-29T00:36:51.452Z,5.53
2017-07-29T00:39:18.152Z,5.30
2017-07-29T00:41:44.811Z,4.65
2017-07-29T00:44:11.471Z,4.95
2017-07-29T00:46:38.132Z,5.87
2017-07-29T00:49:04.795Z,5.47
2017-07-29T00:51:31.450Z,6.00
2017-07-29T00:53:58.116Z,5.22
2017-07-29T00:56:24.776Z,5.45
2017-07-29T00:58:51.436Z,5.65
2017-07-29T01:01:18.116Z,5.72
2017-07-29T01:03:44.935Z,5.45
2017-07-29T01:06:11.622Z,4.82
2017-07-29T01:08:38.283Z,5.03
2017-07-29T01:11:04.967Z,5.00
2017-07-29T01:13:31.641Z,5.18
2017-07-29T01:15:58.299Z,6.15
2017-07-29T01:18:24.959Z,5.22
2017-07-29T01:20:51.633Z,6.60
2017-07-29T01:23:18.296Z,5.18
2017-07-29T01:25:44.962Z,4.90
2017-07-29T01:28:11.633Z,5.72
2017-07-29T01:30:38.299Z,5.28
2017-07-29T01:33:04.996Z,5.40
2017-07-29T01:35:31.654Z,5.03
2017-07-29T01:37:58.338Z,4.87
2017-07-29T01:40:25.008Z,6.15
2017-07-29T01:42:51.672Z,5.10
2017-07-29T01:45:18.325Z,4.70
2017-07-29T01:47:44.978Z,5.20
2017-07-29T01:50:11.631Z,5.43
2017-07-29T01:52:38.295Z,4.95
2017-07-29T01:55:04.947Z,4.90
2017-07-29T01:57:31.602Z,4.80
2017-07-29T01:59:58.270Z,5.20
2017-07-29T02:02:24.927Z,5.35
2017-07-29T02:04:51.616Z,5.80
2017-07-29T02:07:18.271Z,4.95
2017-07-29T02:09:44.976Z,5.00
2017-07-29T02:12:11.632Z,5.25
2017-07-29T02:14:38.300Z,5.35
2017-07-29T02:17:04.959Z,4.50
2017-07-29T02:19:31.619Z,4.60
2017-07-29T02:21:58.287Z,4.60
2017-07-29T02:24:24.947Z,4.95
2017-07-29T02:26:51.606Z,4.37
2017-07-29T02:29:18.263Z,5.12
2017-07-29T02:31:44.930Z,5.10
2017-07-29T02:34:11.597Z,4.90
2017-07-29T02:36:38.255Z,4.93
2017-07-29T02:39:04.922Z,5.82
2017-07-29T02:41:31.580Z,4.72
2017-07-29T02:43:58.240Z,4.37
2017-07-29T02:46:24.928Z,4.80
2017-07-29T02:48:51.584Z,5.00
2017-07-29T02:51:18.287Z,5.32
2017-07-29T02:53:44.943Z,4.68
2017-07-29T02:56:11.600Z,4.75
2017-07-29T02:58:38.261Z,4.55
2017-07-29T03:01:04.924Z,4.82
2017-07-29T03:03:31.579Z,4.55
2017-07-29T03:05:58.234Z,4.55
2017-07-29T03:08:24.891Z,4.55
2017-07-29T03:10:51.551Z,4.18
2017-07-29T03:13:18.235Z,4.50
2017-07-29T03:15:44.891Z,4.10
2017-07-29T03:18:11.585Z,4.85
2017-07-29T03:20:38.239Z,4.53
2017-07-29T03:23:04.896Z,4.70
2017-07-29T03:25:31.583Z,4.37
2017-07-29T03:27:58.243Z,4.87
2017-07-29T03:30:24.926Z,4.57
2017-07-29T03:32:51.588Z,4.47
2017-07-29T03:35:18.271Z,4.40
2017-07-29T03:37:44.939Z,4.37
2017-07-29T03:40:11.635Z,4.53
2017-07-29T03:42:38.295Z,4.00
2017-07-29T03:45:04.979Z,5.00
2017-07-29T03:47:31.651Z,4.12
2017-07-29T03:49:58.339Z,4.87
2017-07-29T03:52:25.004Z,4.57
2017-07-29T03:54:51.701Z,5.00
2017-07-29T03:57:18.391Z,4.45
2017-07-29T03:59:45.048Z,4.00
2017-07-29T04:02:11.706Z,4.22
2017-07-29T04:04:38.368Z,4.30
2017-07-29T04:07:05.051Z,4.53
2017-07-29T04:09:31.710Z,4.72
2017-07-29T04:11:58.399Z,3.95
2017-07-29T04:14:25.064Z,4.35
2017-07-29T04:16:51.752Z,4.32
2017-07-29T04:19:18.407Z,4.12
2017-07-29T04:21:45.111Z,4.12
2017-07-29T04:24:11.776Z,4.37
2017-07-29T04:26:38.435Z,4.93
2017-07-29T04:29:05.102Z,4.05
2017-07-29T04:31:31.775Z,4.18
2017-07-29T04:33:58.446Z,4.15
2017-07-29T04:36:25.104Z,4.20
2017-07-29T04:38:51.783Z,4.20
2017-07-29T04:41:18.447Z,4.55
2017-07-29T04:43:45.158Z,3.78
2017-07-29T04:46:11.820Z,4.50
2017-07-29T04:48:38.507Z,4.25
2017-07-29T04:51:05.164Z,4.68
2017-07-29T04:53:31.883Z,5.20
2017-07-29T04:55:58.540Z,4.00
2017-07-29T04:58:25.194Z,3.85
2017-07-29T05:00:51.851Z,4.57
2017-07-29T05:03:18.510Z,4.18
2017-07-29T05:05:45.171Z,4.30
2017-07-29T05:08:11.832Z,4.20
2017-07-29T05:10:38.519Z,4.37
2017-07-29T05:13:05.175Z,4.37
2017-07-29T05:15:31.868Z,4.07
2017-07-29T05:17:58.528Z,4.53
2017-07-29T05:20:25.203Z,3.92
2017-07-29T05:22:51.864Z,3.90
2017-07-29T05:25:18.551Z,4.87
2017-07-29T05:27:45.212Z,4.40
2017-07-29T05:30:11.895Z,5.55
2017-07-29T05:32:38.564Z,4.45
2017-07-29T05:35:05.283Z,4.20
2017-07-29T05:37:31.952Z,3.97
2017-07-29T05:39:58.631Z,4.30
2017-07-29T05:42:25.288Z,4.00
2017-07-29T05:44:51.943Z,4.25
2017-07-29T05:47:18.603Z,4.30
2017-07-29T05:49:45.266Z,4.43
2017-07-29T05:52:11.951Z,4.60
2017-07-29T05:54:38.627Z,4.10
2017-07-29T05:57:05.323Z,4.30
2017-07-29T05:59:31.983Z,4.22
2017-07-29T06:01:58.667Z,4.37
2017-07-29T06:04:25.328Z,4.28
2017-07-29T06:06:52.300Z,4.43
2017-07-29T06:09:18.963Z,4.25
2017-07-29T06:11:45.625Z,4.37
2017-07-29T06:14:12.295Z,4.45
2017-07-29T06:16:38.958Z,3.50
2017-07-29T06:19:05.667Z,4.78
2017-07-29T06:21:32.335Z,4.47
2017-07-29T06:23:59.039Z,4.03
2017-07-29T06:26:25.704Z,4.82
2017-07-29T06:28:52.511Z,5.00
2017-07-29T06:31:19.171Z,4.25
2017-07-29T06:33:45.878Z,4.50
2017-07-29T06:36:12.547Z,4.37
2017-07-29T06:38:39.215Z,4.18
2017-07-29T06:41:05.887Z,4.00
2017-07-29T06:43:32.551Z,4.80
2017-07-29T06:45:59.222Z,4.28
2017-07-29T06:48:25.889Z,4.90
2017-07-29T06:50:52.563Z,4.25
2017-07-29T06:53:19.235Z,4.28
2017-07-29T06:55:45.903Z,4.60
2017-07-29T06:58:12.571Z,4.47
2017-07-29T07:00:39.268Z,4.25
2017-07-29T07:03:05.934Z,4.55
2017-07-29T07:05:32.620Z,4.80
2017-07-29T07:07:59.279Z,4.97
2017-07-29T07:10:25.971Z,4.60
2017-07-29T07:12:52.640Z,4.75
2017-07-29T07:15:19.340Z,3.80
2017-07-29T07:17:46.026Z,3.83
2017-07-29T07:20:12.700Z,4.07
2017-07-29T07:22:39.371Z,4.18
2017-07-29T07:25:06.039Z,4.77
2017-07-29T07:27:32.695Z,4.67
2017-07-29T07:29:59.346Z,4.53
2017-07-29T07:32:26.164Z,4.63
2017-07-29T07:34:52.819Z,4.30
2017-07-29T07:37:19.491Z,4.80
2017-07-29T07:39:46.163Z,4.90
2017-07-29T07:42:12.838Z,4.30
2017-07-29T07:44:39.501Z,4.00
2017-07-29T07:47:06.204Z,4.00
2017-07-29T07:49:32.868Z,4.77
2017-07-29T07:51:59.528Z,4.33
2017-07-29T07:54:26.193Z,4.10
2017-07-29T07:56:52.851Z,4.30
2017-07-29T07:59:19.513Z,4.27
2017-07-29T08:01:46.179Z,4.33
2017-07-29T08:04:12.865Z,4.23
2017-07-29T08:06:39.534Z,4.27
2017-07-29T08:09:06.223Z,4.47
2017-07-29T08:11:32.887Z,4.00
2017-07-29T08:13:59.554Z,4.40
2017-07-29T08:16:26.211Z,3.83
2017-07-29T08:18:52.872Z,4.40
2017-07-29T08:21:19.543Z,4.20
2017-07-29T08:23:46.203Z,4.30
2017-07-29T08:26:12.859Z,3.73
2017-07-29T08:28:39.513Z,3.70
2017-07-29T08:31:06.175Z,3.77
2017-07-29T08:33:32.843Z,4.00
2017-07-29T08:35:59.614Z,4.20
2017-07-29T08:38:26.288Z,3.90
2017-07-29T08:40:52.987Z,4.40
2017-07-29T08:43:19.664Z,4.73
2017-07-29T08:45:46.323Z,3.93
2017-07-29T08:48:12.983Z,3.90
2017-07-29T08:50:39.696Z,4.37
2017-07-29T08:53:06.353Z,4.13
2017-07-29T08:55:33.015Z,3.70
2017-07-29T08:57:59.675Z,3.90
2017-07-29T09:00:26.340Z,4.27
2017-07-29T09:02:53.005Z,4.00
2017-07-29T09:05:19.661Z,4.30
2017-07-29T09:07:46.316Z,3.70
2017-07-29T09:10:12.975Z,4.60
2017-07-29T09:12:39.627Z,4.27
2017-07-29T09:15:06.307Z,3.90
2017-07-29T09:17:32.983Z,4.17
2017-07-29T09:19:59.638Z,4.63
2017-07-29T09:22:26.308Z,3.87
2017-07-29T09:24:52.971Z,4.03
2017-07-29T09:27:19.631Z,3.83
2017-07-29T09:29:46.320Z,3.53
2017-07-29T09:32:12.988Z,4.00
2017-07-29T09:34:39.675Z,4.00
2017-07-29T09:37:06.330Z,4.10
2017-07-29T09:39:33.017Z,4.00
2017-07-29T09:41:59.699Z,3.90
2017-07-29T09:44:26.399Z,3.93
2017-07-29T09:46:53.057Z,4.20
2017-07-29T09:49:19.711Z,4.40
2017-07-29T09:51:46.367Z,4.93
2017-07-29T09:54:13.028Z,4.57
2017-07-29T09:56:39.719Z,4.00
2017-07-29T09:59:06.381Z,3.57
2017-07-29T10:01:33.070Z,3.67
2017-07-29T10:03:59.735Z,4.33
2017-07-29T10:06:26.423Z,4.03
2017-07-29T10:08:53.079Z,3.53
2017-07-29T10:11:20.744Z,3.90
2017-07-29T10:13:47.407Z,4.23
2017-07-29T10:16:14.095Z,3.90
2017-07-29T10:18:40.751Z,3.90
2017-07-29T10:21:07.408Z,3.83
2017-07-29T10:23:34.083Z,4.37
2017-07-29T10:26:00.739Z,4.10
2017-07-29T10:28:27.395Z,3.90
2017-07-29T10:30:54.104Z,3.60
2017-07-29T10:33:20.779Z,4.07
2017-07-29T10:35:47.446Z,3.87
2017-07-29T10:38:14.132Z,4.00
2017-07-29T10:40:40.787Z,3.60
2017-07-29T10:43:07.467Z,3.63
2017-07-29T10:45:34.123Z,4.30
2017-07-29T10:48:00.783Z,3.50
2017-07-29T10:50:27.451Z,4.00
2017-07-29T10:52:54.116Z,3.57
2017-07-29T10:55:20.799Z,4.03
2017-07-29T10:57:47.463Z,3.67
2017-07-29T11:00:14.144Z,3.33
2017-07-29T11:02:40.799Z,3.53
2017-07-29T11:05:07.485Z,3.87
2017-07-29T11:07:34.143Z,3.77
2017-07-29T11:10:00.846Z,3.90
2017-07-29T11:12:27.507Z,3.40
2017-07-29T11:14:54.163Z,3.37
2017-07-29T11:17:20.828Z,3.50
2017-07-29T11:19:47.480Z,3.60
2017-07-29T11:22:14.155Z,3.63
2017-07-29T11:24:40.821Z,3.40
2017-07-29T11:27:07.503Z,3.80
2017-07-29T11:29:34.159Z,3.80
2017-07-29T11:32:00.843Z,3.70
2017-07-29T11:34:27.491Z,3.90
2017-07-29T11:36:54.171Z,3.60
2017-07-29T11:39:20.823Z,3.40
2017-07-29T11:41:47.503Z,3.50
2017-07-29T11:44:14.163Z,3.40
2017-07-29T11:46:40.829Z,3.73
2017-07-29T11:49:07.492Z,3.50
2017-07-29T11:51:34.155Z,3.10
2017-07-29T11:54:00.916Z,3.13
2017-07-29T11:56:27.583Z,3.60
2017-07-29T11:58:54.276Z,3.30
2017-07-29T12:01:20.944Z,3.20
2017-07-29T12:03:47.622Z,3.50
2017-07-29T12:06:14.291Z,3.70
2017-07-29T12:08:40.972Z,3.27
2017-07-29T12:11:07.632Z,3.67
2017-07-29T12:13:34.315Z,3.80
2017-07-29T12:16:00.972Z,3.60
2017-07-29T12:18:27.627Z,3.70
2017-07-29T12:20:54.284Z,3.50
2017-07-29T12:23:20.939Z,3.13
2017-07-29T12:25:47.628Z,3.20
2017-07-29T12:28:15.362Z,3.60
2017-07-29T12:30:42.052Z,3.20
2017-07-29T12:33:08.707Z,3.83
2017-07-29T12:35:35.466Z,3.40
2017-07-29T12:38:02.159Z,4.30
2017-07-29T12:40:28.819Z,3.53
2017-07-29T12:42:55.476Z,4.00
2017-07-29T12:45:22.127Z,3.70
2017-07-29T12:47:48.783Z,4.00
2017-07-29T12:50:15.451Z,3.70
2017-07-29T12:52:42.111Z,3.67
2017-07-29T12:55:08.763Z,4.07
2017-07-29T12:57:35.474Z,3.50
2017-07-29T13:00:02.133Z,4.07
2017-07-29T13:02:28.839Z,3.77
2017-07-29T13:04:55.493Z,3.40
2017-07-29T13:07:22.160Z,3.47
2017-07-29T13:09:48.823Z,3.30
2017-07-29T13:12:15.487Z,3.83
2017-07-29T13:14:42.147Z,3.73
2017-07-29T13:17:08.808Z,3.90
2017-07-29T13:19:35.475Z,3.80
2017-07-29T13:22:02.139Z,4.00
2017-07-29T13:24:28.823Z,4.07
2017-07-29T13:26:55.485Z,4.13
2017-07-29T13:29:22.171Z,4.60
2017-07-29T13:31:48.831Z,4.00
2017-07-29T13:34:15.523Z,4.57
2017-07-29T13:36:42.185Z,4.50
2017-07-29T13:39:08.847Z,3.60
2017-07-29T13:41:35.519Z,4.10
2017-07-29T13:44:02.179Z,4.00
2017-07-29T13:46:28.844Z,4.17
2017-07-29T13:48:55.513Z,4.10
2017-07-29T13:51:22.172Z,4.10
2017-07-29T13:53:48.836Z,3.57
2017-07-29T13:56:15.527Z,4.10
2017-07-29T13:58:42.179Z,4.30
2017-07-29T14:01:08.856Z,4.00
2017-07-29T14:03:35.515Z,4.57
2017-07-29T14:06:02.197Z,4.30
2017-07-29T14:08:28.860Z,3.67
2017-07-29T14:10:55.552Z,4.13
2017-07-29T14:13:22.206Z,4.13
2017-07-29T14:15:48.861Z,4.13
2017-07-29T14:18:15.523Z,3.80
2017-07-29T14:20:42.181Z,4.47
2017-07-29T14:23:08.840Z,3.83
2017-07-29T14:25:35.495Z,4.17
2017-07-29T14:28:02.184Z,4.07
2017-07-29T14:30:28.843Z,4.00
2017-07-29T14:32:55.523Z,3.60
2017-07-29T14:35:22.179Z,3.77
2017-07-29T14:37:48.867Z,3.70
2017-07-29T14:40:15.536Z,3.63
2017-07-29T14:42:42.220Z,4.03
2017-07-29T14:45:08.890Z,3.50
2017-07-29T14:47:35.543Z,4.60
2017-07-29T14:50:02.246Z,4.10
2017-07-29T14:52:28.903Z,4.13
2017-07-29T14:54:55.559Z,3.97
2017-07-29T14:57:22.219Z,3.80
2017-07-29T14:59:48.875Z,3.23
2017-07-29T15:02:15.535Z,3.43
2017-07-29T15:04:42.192Z,3.67
2017-07-29T15:07:08.848Z,3.20
2017-07-29T15:09:35.508Z,3.63
2017-07-29T15:12:02.220Z,4.07
2017-07-29T15:14:28.880Z,3.87
2017-07-29T15:16:55.563Z,3.37
2017-07-29T15:19:22.252Z,3.37
2017-07-29T15:21:48.907Z,3.60
2017-07-29T15:24:15.564Z,3.63
2017-07-29T15:26:42.243Z,3.43
2017-07-29T15:29:08.902Z,3.40
2017-07-29T15:31:35.612Z,3.47
2017-07-29T15:34:02.267Z,3.47
2017-07-29T15:36:28.947Z,3.20
2017-07-29T15:38:55.613Z,3.97
2017-07-29T15:41:22.296Z,3.20
2017-07-29T15:43:48.952Z,3.60
2017-07-29T15:46:15.655Z,3.40
2017-07-29T15:48:42.307Z,3.50
2017-07-29T15:51:08.999Z,3.73
2017-07-29T15:53:35.655Z,3.40
2017-07-29T15:56:02.315Z,3.40
2017-07-29T15:58:28.977Z,3.37
2017-07-29T16:00:55.631Z,3.30
2017-07-29T16:03:22.303Z,3.70
2017-07-29T16:05:48.956Z,4.80
2017-07-29T16:08:15.645Z,3.53
2017-07-29T16:10:42.311Z,3.50
2017-07-29T16:13:08.993Z,3.23
2017-07-29T16:15:35.651Z,3.30
2017-07-29T16:18:02.327Z,3.50
2017-07-29T16:20:29.021Z,3.57
2017-07-29T16:22:55.710Z,3.60
2017-07-29T16:25:22.363Z,3.30
2017-07-29T16:27:49.059Z,3.93
2017-07-29T16:30:15.716Z,4.30
2017-07-29T16:32:42.375Z,3.60
2017-07-29T16:35:09.779Z,4.13
2017-07-29T16:37:36.443Z,3.43
2017-07-29T16:40:03.104Z,3.30
2017-07-29T16:42:29.774Z,3.67
2017-07-29T16:44:56.454Z,3.30
2017-07-29T16:47:23.112Z,3.80
2017-07-29T16:49:49.796Z,3.37
2017-07-29T16:52:16.451Z,3.20
2017-07-29T16:54:43.134Z,3.40
2017-07-29T16:57:09.782Z,3.43
2017-07-29T16:59:36.480Z,3.77
2017-07-29T17:02:03.139Z,3.30
2017-07-29T17:04:29.791Z,4.07
2017-07-29T17:06:56.451Z,3.30
2017-07-29T17:09:23.129Z,3.33
2017-07-29T17:11:49.808Z,3.10
2017-07-29T17:14:16.467Z,3.70
2017-07-29T17:16:43.147Z,3.70
2017-07-29T17:19:09.799Z,3.53
2017-07-29T17:21:36.478Z,3.43
2017-07-29T17:24:03.132Z,4.00
2017-07-29T17:26:29.811Z,3.90
2017-07-29T17:28:56.472Z,3.77
2017-07-29T17:31:23.173Z,3.63
2017-07-29T17:33:49.870Z,3.50
2017-07-29T17:36:16.558Z,3.83
2017-07-29T17:38:43.224Z,3.97
2017-07-29T17:41:09.904Z,3.57
2017-07-29T17:43:36.573Z,3.27
2017-07-29T17:46:03.281Z,3.50
2017-07-29T17:48:29.935Z,4.07
2017-07-29T17:50:56.592Z,3.47
2017-07-29T17:53:23.247Z,4.37
2017-07-29T17:55:49.908Z,3.80
2017-07-29T17:58:16.583Z,3.50
2017-07-29T18:00:43.236Z,4.13
2017-07-29T18:03:09.916Z,4.37
2017-07-29T18:05:36.574Z,4.33
2017-07-29T18:08:03.247Z,3.53
2017-07-29T18:10:29.905Z,3.90
2017-07-29T18:12:56.617Z,4.03
2017-07-29T18:15:23.270Z,4.00
2017-07-29T18:17:49.932Z,4.10
2017-07-29T18:20:16.592Z,3.80
2017-07-29T18:22:43.272Z,4.10
2017-07-29T18:25:09.942Z,3.67
2017-07-29T18:27:36.592Z,3.90
2017-07-29T18:30:03.268Z,3.70
2017-07-29T18:32:29.944Z,4.33
2017-07-29T18:34:56.612Z,4.17
2017-07-29T18:37:23.281Z,3.90
2017-07-29T18:39:49.947Z,5.67
2017-07-29T18:42:16.615Z,4.80
2017-07-29T18:44:43.272Z,4.63
2017-07-29T18:47:09.928Z,4.73
2017-07-29T18:49:36.658Z,6.93
2017-07-29T18:52:03.318Z,6.33
2017-07-29T18:54:30.002Z,5.83
2017-07-29T18:56:56.658Z,4.83
2017-07-29T18:59:23.336Z,5.03
2017-07-29T19:01:49.987Z,5.40
2017-07-29T19:04:16.656Z,5.20
2017-07-29T19:06:43.323Z,5.50
2017-07-29T19:09:09.988Z,4.70
2017-07-29T19:11:36.652Z,4.73
2017-07-29T19:14:03.315Z,5.10
2017-07-29T19:16:29.974Z,5.77
2017-07-29T19:18:56.635Z,5.27
2017-07-29T19:21:23.294Z,5.20
2017-07-29T19:23:49.965Z,5.53
2017-07-29T19:26:16.643Z,5.77
2017-07-29T19:28:43.303Z,5.53
2017-07-29T19:31:09.984Z,5.60
2017-07-29T19:33:36.646Z,5.90
2017-07-29T19:36:03.302Z,5.60
2017-07-29T19:38:29.973Z,5.67
2017-07-29T19:40:56.636Z,6.00
2017-07-29T19:43:23.300Z,5.73
2017-07-29T19:45:49.971Z,5.13
2017-07-29T19:48:16.641Z,5.30
2017-07-29T19:50:43.312Z,5.60
2017-07-29T19:53:09.973Z,5.13
2017-07-29T19:55:36.639Z,5.43
2017-07-29T19:58:03.295Z,5.20
2017-07-29T20:00:29.951Z,5.67
2017-07-29T20:02:56.617Z,5.90
2017-07-29T20:05:23.276Z,5.70
2017-07-29T20:07:49.945Z,5.50
2017-07-29T20:10:16.611Z,5.50
2017-07-29T20:12:43.308Z,6.17
2017-07-29T20:15:09.968Z,5.80
2017-07-29T20:17:36.636Z,5.73
2017-07-29T20:20:03.307Z,6.18
2017-07-29T20:22:29.985Z,6.12
2017-07-29T20:24:56.655Z,5.72
2017-07-29T20:27:23.323Z,6.00
2017-07-29T20:29:49.995Z,5.90
2017-07-29T20:32:16.667Z,5.68
2017-07-29T20:34:43.339Z,5.97
2017-07-29T20:37:10.009Z,5.75
2017-07-29T20:39:36.679Z,5.95
2017-07-29T20:42:03.347Z,6.10
2017-07-29T20:44:30.095Z,5.90
2017-07-29T20:46:56.762Z,5.30
2017-07-29T20:49:23.735Z,5.50
2017-07-29T20:51:50.415Z,5.57
2017-07-29T20:54:17.088Z,6.30
2017-07-29T20:56:43.792Z,6.22
2017-07-29T20:59:10.465Z,5.65
2017-07-29T21:01:37.160Z,6.43
2017-07-29T21:04:03.818Z,5.40
2017-07-29T21:06:30.504Z,6.60
2017-07-29T21:08:57.165Z,6.13
2017-07-29T21:11:23.847Z,6.20
2017-07-29T21:13:50.499Z,5.77
2017-07-29T21:16:17.179Z,5.87
2017-07-29T21:18:43.846Z,5.47
2017-07-29T21:21:10.528Z,5.57
2017-07-29T21:23:37.187Z,5.40
2017-07-29T21:26:03.875Z,5.37
2017-07-29T21:28:30.536Z,5.20
2017-07-29T21:30:57.199Z,5.50
2017-07-29T21:33:23.858Z,5.87
2017-07-29T21:35:50.519Z,6.67
2017-07-29T21:38:17.200Z,6.80
2017-07-29T21:40:43.857Z,7.03
2017-07-29T21:43:10.543Z,7.40
2017-07-29T21:45:37.199Z,7.70
2017-07-29T21:48:03.880Z,7.67
2017-07-29T21:50:30.539Z,7.47
2017-07-29T21:52:57.249Z,6.40
2017-07-29T21:55:23.916Z,6.80
2017-07-29T21:57:50.606Z,7.80
2017-07-29T22:00:17.271Z,7.67
2017-07-29T22:02:43.953Z,6.73
2017-07-29T22:05:10.617Z,6.73
2017-07-29T22:07:37.303Z,5.90
2017-07-29T22:10:03.960Z,6.07
2017-07-29T22:12:30.624Z,6.70
2017-07-29T22:14:57.280Z,6.50
2017-07-29T22:17:23.939Z,6.67
2017-07-29T22:19:50.622Z,5.87
2017-07-29T22:22:17.288Z,6.17
2017-07-29T22:24:43.984Z,6.10
2017-07-29T22:27:10.640Z,6.10
2017-07-29T22:29:37.319Z,5.80
2017-07-29T22:32:03.975Z,6.00
2017-07-29T22:34:30.653Z,5.53
2017-07-29T22:36:57.324Z,5.70
2017-07-29T22:39:24.027Z,6.20
2017-07-29T22:41:50.688Z,5.70
2017-07-29T22:44:17.352Z,6.00
2017-07-29T22:46:44.013Z,5.60
2017-07-29T22:49:10.676Z,5.73
2017-07-29T22:51:37.340Z,5.20
2017-07-29T22:54:04.007Z,5.97
2017-07-29T22:56:30.700Z,6.80
2017-07-29T22:58:57.360Z,7.60
2017-07-29T23:01:24.053Z,7.10
2017-07-29T23:03:50.707Z,8.23
2017-07-29T23:06:17.399Z,8.70
2017-07-29T23:08:44.060Z,7.43
2017-07-29T23:11:10.750Z,7.30
2017-07-29T23:13:37.526Z,7.37
2017-07-29T23:16:04.191Z,7.35
2017-07-29T23:18:30.860Z,8.00
2017-07-29T23:20:57.527Z,6.87
2017-07-29T23:23:24.203Z,7.20
2017-07-29T23:25:50.871Z,6.75
2017-07-29T23:28:17.539Z,7.07
2017-07-29T23:30:44.211Z,7.18
2017-07-29T23:33:10.915Z,7.10
2017-07-29T23:35:38.255Z,7.25
2017-07-29T23:38:04.947Z,6.87
2017-07-29T23:40:31.620Z,7.65
2017-07-29T23:42:58.323Z,7.22
2017-07-29T23:45:24.984Z,7.18
2017-07-29T23:47:51.652Z,7.30
2017-07-29T23:50:18.315Z,7.12
2017-07-29T23:52:44.978Z,7.30
2017-07-29T23:55:11.642Z,6.65
2017-07-29T23:57:38.306Z,7.60
